sensor_id;sensor_type;location;lat;lon;timestamp;temperature;humidity
25352;DHT22;13304;48.464;8.712;2022-12-24T00:02:00;12.60;91.10
25352;DHT22;13304;48.464;8.712;2022-12-24T00:04:26;12.60;91.00
25352;DHT22;13304;48.464;8.712;2022-12-24T00:06:51;12.60;90.90
25352;DHT22;13304;48.464;8.712;2022-12-24T00:09:17;12.60;90.70
25352;DHT22;13304;48.464;8.712;2022-12-24T00:11:43;12.50;91.00
25352;DHT22;13304;48.464;8.712;2022-12-24T00:14:09;12.50;90.60
25352;DHT22;13304;48.464;8.712;2022-12-24T00:16:34;12.50;90.70
25352;DHT22;13304;48.464;8.712;2022-12-24T00:19:00;12.50;90.80
25352;DHT22;13304;48.464;8.712;2022-12-24T00:21:26;12.50;91.30
25352;DHT22;13304;48.464;8.712;2022-12-24T00:23:52;12.50;91.00
25352;DHT22;13304;48.464;8.712;2022-12-24T00:26:18;12.50;91.00
25352;DHT22;13304;48.464;8.712;2022-12-24T00:28:43;12.50;91.00
25352;DHT22;13304;48.464;8.712;2022-12-24T00:31:12;12.50;91.10
25352;DHT22;13304;48.464;8.712;2022-12-24T00:33:38;12.40;91.00
25352;DHT22;13304;48.464;8.712;2022-12-24T00:36:05;12.30;90.90
25352;DHT22;13304;48.464;8.712;2022-12-24T00:38:30;12.40;91.10
25352;DHT22;13304;48.464;8.712;2022-12-24T00:41:00;12.40;91.00
25352;DHT22;13304;48.464;8.712;2022-12-24T00:43:28;12.30;90.90
25352;DHT22;13304;48.464;8.712;2022-12-24T00:45:54;12.30;91.00
25352;DHT22;13304;48.464;8.712;2022-12-24T00:48:19;12.30;91.10
25352;DHT22;13304;48.464;8.712;2022-12-24T00:50:47;12.20;91.10
25352;DHT22;13304;48.464;8.712;2022-12-24T00:53:13;12.20;91.10
25352;DHT22;13304;48.464;8.712;2022-12-24T00:55:39;12.20;91.10
25352;DHT22;13304;48.464;8.712;2022-12-24T00:58:04;12.20;91.10
25352;DHT22;13304;48.464;8.712;2022-12-24T01:00:30;12.10;91.30
25352;DHT22;13304;48.464;8.712;2022-12-24T01:02:55;12.10;91.40
25352;DHT22;13304;48.464;8.712;2022-12-24T01:05:21;12.10;91.50
25352;DHT22;13304;48.464;8.712;2022-12-24T01:07:47;12.10;91.40
25352;DHT22;13304;48.464;8.712;2022-12-24T01:10:16;12.10;91.60
25352;DHT22;13304;48.464;8.712;2022-12-24T01:12:42;12.10;91.60
25352;DHT22;13304;48.464;8.712;2022-12-24T01:15:09;12.10;91.60
25352;DHT22;13304;48.464;8.712;2022-12-24T01:17:35;12.10;91.60
25352;DHT22;13304;48.464;8.712;2022-12-24T01:20:02;12.10;91.50
25352;DHT22;13304;48.464;8.712;2022-12-24T01:22:27;12.10;91.50
25352;DHT22;13304;48.464;8.712;2022-12-24T01:24:53;12.10;91.50
25352;DHT22;13304;48.464;8.712;2022-12-24T01:27:19;12.10;91.50
25352;DHT22;13304;48.464;8.712;2022-12-24T01:29:44;12.10;91.30
25352;DHT22;13304;48.464;8.712;2022-12-24T01:32:10;12.10;91.50
25352;DHT22;13304;48.464;8.712;2022-12-24T01:34:35;12.10;91.50
25352;DHT22;13304;48.464;8.712;2022-12-24T01:37:01;12.10;91.40
25352;DHT22;13304;48.464;8.712;2022-12-24T01:39:27;12.10;91.50
25352;DHT22;13304;48.464;8.712;2022-12-24T01:41:52;12.10;91.50
25352;DHT22;13304;48.464;8.712;2022-12-24T01:44:42;12.10;91.50
25352;DHT22;13304;48.464;8.712;2022-12-24T01:47:19;12.00;91.20
25352;DHT22;13304;48.464;8.712;2022-12-24T01:49:53;12.00;91.00
25352;DHT22;13304;48.464;8.712;2022-12-24T01:52:24;12.00;90.80
25352;DHT22;13304;48.464;8.712;2022-12-24T01:55:00;12.00;90.80
25352;DHT22;13304;48.464;8.712;2022-12-24T01:57:33;11.90;90.90
25352;DHT22;13304;48.464;8.712;2022-12-24T02:00:08;11.80;90.90
25352;DHT22;13304;48.464;8.712;2022-12-24T02:02:36;11.80;90.90
25352;DHT22;13304;48.464;8.712;2022-12-24T02:05:34;11.80;90.90
25352;DHT22;13304;48.464;8.712;2022-12-24T02:08:03;11.70;90.70
25352;DHT22;13304;48.464;8.712;2022-12-24T02:10:29;11.70;90.70
25352;DHT22;13304;48.464;8.712;2022-12-24T02:12:55;11.60;90.70
25352;DHT22;13304;48.464;8.712;2022-12-24T02:15:22;11.60;90.70
25352;DHT22;13304;48.464;8.712;2022-12-24T02:18:12;11.50;90.70
25352;DHT22;13304;48.464;8.712;2022-12-24T02:26:17;11.30;91.20
25352;DHT22;13304;48.464;8.712;2022-12-24T02:32:02;11.20;91.50
25352;DHT22;13304;48.464;8.712;2022-12-24T02:34:35;11.30;92.30
25352;DHT22;13304;48.464;8.712;2022-12-24T02:37:07;11.30;92.10
25352;DHT22;13304;48.464;8.712;2022-12-24T02:39:44;11.30;92.20
25352;DHT22;13304;48.464;8.712;2022-12-24T02:42:13;11.20;92.00
25352;DHT22;13304;48.464;8.712;2022-12-24T02:44:46;11.30;92.30
25352;DHT22;13304;48.464;8.712;2022-12-24T02:47:13;11.40;92.40
25352;DHT22;13304;48.464;8.712;2022-12-24T02:49:44;11.40;92.40
25352;DHT22;13304;48.464;8.712;2022-12-24T02:54:55;11.40;92.30
25352;DHT22;13304;48.464;8.712;2022-12-24T02:57:27;11.50;92.60
25352;DHT22;13304;48.464;8.712;2022-12-24T03:00:04;11.50;92.60
25352;DHT22;13304;48.464;8.712;2022-12-24T03:05:12;11.60;92.70
25352;DHT22;13304;48.464;8.712;2022-12-24T03:10:54;11.60;92.60
25352;DHT22;13304;48.464;8.712;2022-12-24T03:13:22;11.60;92.10
25352;DHT22;13304;48.464;8.712;2022-12-24T03:15:49;11.70;92.30
25352;DHT22;13304;48.464;8.712;2022-12-24T03:18:21;11.70;92.30
25352;DHT22;13304;48.464;8.712;2022-12-24T03:20:59;11.70;92.00
25352;DHT22;13304;48.464;8.712;2022-12-24T03:23:26;11.70;92.00
25352;DHT22;13304;48.464;8.712;2022-12-24T03:25:52;11.70;92.10
25352;DHT22;13304;48.464;8.712;2022-12-24T03:28:19;11.70;92.00
25352;DHT22;13304;48.464;8.712;2022-12-24T03:30:48;11.70;91.90
25352;DHT22;13304;48.464;8.712;2022-12-24T03:33:14;11.70;91.80
25352;DHT22;13304;48.464;8.712;2022-12-24T03:35:40;11.70;91.90
25352;DHT22;13304;48.464;8.712;2022-12-24T03:38:05;11.70;91.80
25352;DHT22;13304;48.464;8.712;2022-12-24T03:40:31;11.70;91.70
25352;DHT22;13304;48.464;8.712;2022-12-24T03:42:57;11.70;91.60
25352;DHT22;13304;48.464;8.712;2022-12-24T03:45:23;11.60;91.30
25352;DHT22;13304;48.464;8.712;2022-12-24T03:47:49;11.70;91.20
25352;DHT22;13304;48.464;8.712;2022-12-24T03:50:14;11.60;91.20
25352;DHT22;13304;48.464;8.712;2022-12-24T03:52:40;11.70;91.30
25352;DHT22;13304;48.464;8.712;2022-12-24T03:55:06;11.60;91.40
25352;DHT22;13304;48.464;8.712;2022-12-24T03:57:32;11.60;91.30
25352;DHT22;13304;48.464;8.712;2022-12-24T03:59:57;11.60;91.70
25352;DHT22;13304;48.464;8.712;2022-12-24T04:02:23;11.60;91.40
25352;DHT22;13304;48.464;8.712;2022-12-24T04:04:49;11.50;91.50
25352;DHT22;13304;48.464;8.712;2022-12-24T04:07:15;11.50;91.50
25352;DHT22;13304;48.464;8.712;2022-12-24T04:09:40;11.50;91.30
25352;DHT22;13304;48.464;8.712;2022-12-24T04:12:06;11.50;91.50
25352;DHT22;13304;48.464;8.712;2022-12-24T04:14:32;11.50;91.50
25352;DHT22;13304;48.464;8.712;2022-12-24T04:16:58;11.40;91.30
25352;DHT22;13304;48.464;8.712;2022-12-24T04:19:24;11.40;91.40
25352;DHT22;13304;48.464;8.712;2022-12-24T04:21:49;11.40;91.50
25352;DHT22;13304;48.464;8.712;2022-12-24T04:24:15;11.40;91.50
25352;DHT22;13304;48.464;8.712;2022-12-24T04:26:40;11.40;91.50
25352;DHT22;13304;48.464;8.712;2022-12-24T04:29:06;11.40;91.60
25352;DHT22;13304;48.464;8.712;2022-12-24T04:31:32;11.40;91.60
25352;DHT22;13304;48.464;8.712;2022-12-24T04:33:57;11.40;91.60
25352;DHT22;13304;48.464;8.712;2022-12-24T04:36:23;11.40;91.80
25352;DHT22;13304;48.464;8.712;2022-12-24T04:38:49;11.30;91.80
25352;DHT22;13304;48.464;8.712;2022-12-24T04:41:17;11.30;91.90
25352;DHT22;13304;48.464;8.712;2022-12-24T04:43:43;11.30;92.00
25352;DHT22;13304;48.464;8.712;2022-12-24T04:46:12;11.30;92.10
25352;DHT22;13304;48.464;8.712;2022-12-24T04:48:39;11.30;92.50
25352;DHT22;13304;48.464;8.712;2022-12-24T04:51:07;11.30;92.20
25352;DHT22;13304;48.464;8.712;2022-12-24T04:53:33;11.30;92.30
25352;DHT22;13304;48.464;8.712;2022-12-24T04:56:00;11.40;92.30
25352;DHT22;13304;48.464;8.712;2022-12-24T04:58:25;11.40;92.30
25352;DHT22;13304;48.464;8.712;2022-12-24T05:00:51;11.40;92.40
25352;DHT22;13304;48.464;8.712;2022-12-24T05:03:17;11.40;92.40
25352;DHT22;13304;48.464;8.712;2022-12-24T05:05:44;11.40;92.40
25352;DHT22;13304;48.464;8.712;2022-12-24T05:08:10;11.40;92.40
25352;DHT22;13304;48.464;8.712;2022-12-24T05:10:36;11.50;92.50
25352;DHT22;13304;48.464;8.712;2022-12-24T05:13:02;11.50;92.50
25352;DHT22;13304;48.464;8.712;2022-12-24T05:15:28;11.50;92.90
25352;DHT22;13304;48.464;8.712;2022-12-24T05:17:53;11.60;92.50
25352;DHT22;13304;48.464;8.712;2022-12-24T05:20:19;11.60;92.50
25352;DHT22;13304;48.464;8.712;2022-12-24T05:22:45;11.60;92.30
25352;DHT22;13304;48.464;8.712;2022-12-24T05:25:35;11.60;92.80
25352;DHT22;13304;48.464;8.712;2022-12-24T05:28:20;11.60;92.50
25352;DHT22;13304;48.464;8.712;2022-12-24T05:30:45;11.70;93.00
25352;DHT22;13304;48.464;8.712;2022-12-24T05:33:11;11.70;92.60
25352;DHT22;13304;48.464;8.712;2022-12-24T05:35:36;11.70;92.50
25352;DHT22;13304;48.464;8.712;2022-12-24T05:38:02;11.70;92.50
25352;DHT22;13304;48.464;8.712;2022-12-24T05:40:28;11.70;92.50
25352;DHT22;13304;48.464;8.712;2022-12-24T05:42:54;11.70;92.40
25352;DHT22;13304;48.464;8.712;2022-12-24T05:45:19;11.70;92.40
25352;DHT22;13304;48.464;8.712;2022-12-24T05:47:46;11.80;92.40
25352;DHT22;13304;48.464;8.712;2022-12-24T05:50:11;11.80;92.20
25352;DHT22;13304;48.464;8.712;2022-12-24T05:52:37;11.80;92.20
25352;DHT22;13304;48.464;8.712;2022-12-24T05:55:03;11.80;92.00
25352;DHT22;13304;48.464;8.712;2022-12-24T05:57:29;11.70;91.70
25352;DHT22;13304;48.464;8.712;2022-12-24T05:59:54;11.80;91.80
25352;DHT22;13304;48.464;8.712;2022-12-24T06:02:20;11.80;91.80
25352;DHT22;13304;48.464;8.712;2022-12-24T06:04:46;11.80;91.90
25352;DHT22;13304;48.464;8.712;2022-12-24T06:07:11;11.80;91.80
25352;DHT22;13304;48.464;8.712;2022-12-24T06:09:37;11.80;91.80
25352;DHT22;13304;48.464;8.712;2022-12-24T06:12:03;11.70;91.50
25352;DHT22;13304;48.464;8.712;2022-12-24T06:14:29;11.70;91.30
25352;DHT22;13304;48.464;8.712;2022-12-24T06:16:54;11.70;91.70
25352;DHT22;13304;48.464;8.712;2022-12-24T06:19:20;11.70;91.40
25352;DHT22;13304;48.464;8.712;2022-12-24T06:21:45;11.70;91.50
25352;DHT22;13304;48.464;8.712;2022-12-24T06:24:11;11.70;91.40
25352;DHT22;13304;48.464;8.712;2022-12-24T06:26:37;11.70;91.40
25352;DHT22;13304;48.464;8.712;2022-12-24T06:29:02;11.70;91.40
25352;DHT22;13304;48.464;8.712;2022-12-24T06:31:28;11.70;91.30
25352;DHT22;13304;48.464;8.712;2022-12-24T06:33:54;11.60;91.10
25352;DHT22;13304;48.464;8.712;2022-12-24T06:36:22;11.60;91.10
25352;DHT22;13304;48.464;8.712;2022-12-24T06:38:48;11.60;91.10
25352;DHT22;13304;48.464;8.712;2022-12-24T06:41:15;11.60;91.10
25352;DHT22;13304;48.464;8.712;2022-12-24T06:43:45;11.60;91.10
25352;DHT22;13304;48.464;8.712;2022-12-24T06:46:11;11.50;90.70
25352;DHT22;13304;48.464;8.712;2022-12-24T06:48:37;11.50;90.90
25352;DHT22;13304;48.464;8.712;2022-12-24T06:51:03;11.50;90.90
25352;DHT22;13304;48.464;8.712;2022-12-24T06:53:30;11.50;90.90
25352;DHT22;13304;48.464;8.712;2022-12-24T06:56:06;11.50;91.10
25352;DHT22;13304;48.464;8.712;2022-12-24T06:58:33;11.40;90.90
25352;DHT22;13304;48.464;8.712;2022-12-24T07:01:03;11.40;91.00
25352;DHT22;13304;48.464;8.712;2022-12-24T07:03:30;11.40;90.80
25352;DHT22;13304;48.464;8.712;2022-12-24T07:05:56;11.40;90.80
25352;DHT22;13304;48.464;8.712;2022-12-24T07:08:21;11.40;91.00
25352;DHT22;13304;48.464;8.712;2022-12-24T07:10:48;11.30;91.10
25352;DHT22;13304;48.464;8.712;2022-12-24T07:13:15;11.30;90.90
25352;DHT22;13304;48.464;8.712;2022-12-24T07:15:41;11.30;91.00
25352;DHT22;13304;48.464;8.712;2022-12-24T07:18:06;11.40;91.10
25352;DHT22;13304;48.464;8.712;2022-12-24T07:20:32;11.40;91.10
25352;DHT22;13304;48.464;8.712;2022-12-24T07:22:58;11.40;91.00
25352;DHT22;13304;48.464;8.712;2022-12-24T07:25:23;11.30;91.10
25352;DHT22;13304;48.464;8.712;2022-12-24T07:27:49;11.30;91.10
25352;DHT22;13304;48.464;8.712;2022-12-24T07:30:15;11.30;90.90
25352;DHT22;13304;48.464;8.712;2022-12-24T07:32:41;11.30;91.10
25352;DHT22;13304;48.464;8.712;2022-12-24T07:35:07;11.30;90.60
25352;DHT22;13304;48.464;8.712;2022-12-24T07:37:32;11.30;90.70
25352;DHT22;13304;48.464;8.712;2022-12-24T07:39:58;11.30;90.90
25352;DHT22;13304;48.464;8.712;2022-12-24T07:42:24;11.20;90.40
25352;DHT22;13304;48.464;8.712;2022-12-24T07:44:50;11.20;90.50
25352;DHT22;13304;48.464;8.712;2022-12-24T07:47:15;11.20;90.20
25352;DHT22;13304;48.464;8.712;2022-12-24T07:49:44;11.10;90.40
25352;DHT22;13304;48.464;8.712;2022-12-24T07:52:10;11.10;90.50
25352;DHT22;13304;48.464;8.712;2022-12-24T07:54:35;11.10;90.60
25352;DHT22;13304;48.464;8.712;2022-12-24T07:57:01;11.10;90.70
25352;DHT22;13304;48.464;8.712;2022-12-24T07:59:27;11.10;90.50
25352;DHT22;13304;48.464;8.712;2022-12-24T08:01:52;11.10;90.40
25352;DHT22;13304;48.464;8.712;2022-12-24T08:04:18;11.00;90.50
25352;DHT22;13304;48.464;8.712;2022-12-24T08:06:44;11.00;90.50
25352;DHT22;13304;48.464;8.712;2022-12-24T08:09:09;11.00;90.60
25352;DHT22;13304;48.464;8.712;2022-12-24T08:11:35;11.00;90.60
25352;DHT22;13304;48.464;8.712;2022-12-24T08:14:01;11.00;90.70
25352;DHT22;13304;48.464;8.712;2022-12-24T08:16:26;11.00;90.80
25352;DHT22;13304;48.464;8.712;2022-12-24T08:18:52;11.00;90.90
25352;DHT22;13304;48.464;8.712;2022-12-24T08:21:18;11.00;90.90
25352;DHT22;13304;48.464;8.712;2022-12-24T08:23:45;11.00;91.20
25352;DHT22;13304;48.464;8.712;2022-12-24T08:26:11;11.00;91.30
25352;DHT22;13304;48.464;8.712;2022-12-24T08:28:37;11.10;91.50
25352;DHT22;13304;48.464;8.712;2022-12-24T08:31:04;11.10;91.60
25352;DHT22;13304;48.464;8.712;2022-12-24T08:33:30;11.10;91.50
25352;DHT22;13304;48.464;8.712;2022-12-24T08:35:56;11.20;91.50
25352;DHT22;13304;48.464;8.712;2022-12-24T08:38:22;11.20;91.50
25352;DHT22;13304;48.464;8.712;2022-12-24T08:40:48;11.20;91.70
25352;DHT22;13304;48.464;8.712;2022-12-24T08:43:18;11.30;91.60
25352;DHT22;13304;48.464;8.712;2022-12-24T08:45:45;11.30;91.40
25352;DHT22;13304;48.464;8.712;2022-12-24T08:48:11;11.30;91.10
25352;DHT22;13304;48.464;8.712;2022-12-24T08:50:40;11.40;91.40
25352;DHT22;13304;48.464;8.712;2022-12-24T08:53:07;11.40;91.10
25352;DHT22;13304;48.464;8.712;2022-12-24T08:55:33;11.50;91.10
25352;DHT22;13304;48.464;8.712;2022-12-24T08:58:00;11.50;91.30
25352;DHT22;13304;48.464;8.712;2022-12-24T09:00:26;11.50;91.20
25352;DHT22;13304;48.464;8.712;2022-12-24T09:02:51;11.60;91.10
25352;DHT22;13304;48.464;8.712;2022-12-24T09:05:17;11.60;91.10
25352;DHT22;13304;48.464;8.712;2022-12-24T09:07:43;11.60;91.00
25352;DHT22;13304;48.464;8.712;2022-12-24T09:10:10;11.70;90.80
25352;DHT22;13304;48.464;8.712;2022-12-24T09:12:36;11.70;90.70
25352;DHT22;13304;48.464;8.712;2022-12-24T09:15:02;11.70;90.80
25352;DHT22;13304;48.464;8.712;2022-12-24T09:17:30;11.70;90.90
25352;DHT22;13304;48.464;8.712;2022-12-24T09:19:56;11.70;91.00
25352;DHT22;13304;48.464;8.712;2022-12-24T09:22:21;11.80;91.20
25352;DHT22;13304;48.464;8.712;2022-12-24T09:24:47;11.80;91.10
25352;DHT22;13304;48.464;8.712;2022-12-24T09:27:13;11.80;91.10
25352;DHT22;13304;48.464;8.712;2022-12-24T09:29:38;11.80;91.00
25352;DHT22;13304;48.464;8.712;2022-12-24T09:32:05;11.90;91.10
25352;DHT22;13304;48.464;8.712;2022-12-24T09:34:31;11.90;91.20
25352;DHT22;13304;48.464;8.712;2022-12-24T09:36:57;11.90;91.20
25352;DHT22;13304;48.464;8.712;2022-12-24T09:39:24;12.00;91.20
25352;DHT22;13304;48.464;8.712;2022-12-24T09:44:39;11.90;90.50
25352;DHT22;13304;48.464;8.712;2022-12-24T09:47:28;12.00;91.10
25352;DHT22;13304;48.464;8.712;2022-12-24T09:49:59;12.00;90.70
25352;DHT22;13304;48.464;8.712;2022-12-24T09:52:32;12.00;90.70
25352;DHT22;13304;48.464;8.712;2022-12-24T09:55:07;12.00;91.10
25352;DHT22;13304;48.464;8.712;2022-12-24T09:57:41;12.00;90.80
25352;DHT22;13304;48.464;8.712;2022-12-24T10:00:28;12.10;90.90
25352;DHT22;13304;48.464;8.712;2022-12-24T10:02:54;12.00;90.40
25352;DHT22;13304;48.464;8.712;2022-12-24T10:05:47;12.10;90.80
25352;DHT22;13304;48.464;8.712;2022-12-24T10:11:42;12.10;90.90
25352;DHT22;13304;48.464;8.712;2022-12-24T10:23:29;12.20;90.00
25352;DHT22;13304;48.464;8.712;2022-12-24T10:26:25;12.20;90.10
25352;DHT22;13304;48.464;8.712;2022-12-24T10:28:59;12.20;90.40
25352;DHT22;13304;48.464;8.712;2022-12-24T10:31:29;12.30;90.40
25352;DHT22;13304;48.464;8.712;2022-12-24T10:34:04;12.30;90.70
25352;DHT22;13304;48.464;8.712;2022-12-24T10:36:31;12.30;91.00
25352;DHT22;13304;48.464;8.712;2022-12-24T10:38:57;12.40;90.90
25352;DHT22;13304;48.464;8.712;2022-12-24T10:41:24;12.40;90.80
25352;DHT22;13304;48.464;8.712;2022-12-24T10:43:51;12.50;90.80
25352;DHT22;13304;48.464;8.712;2022-12-24T10:46:18;12.50;90.70
25352;DHT22;13304;48.464;8.712;2022-12-24T10:54:21;12.60;90.90
25352;DHT22;13304;48.464;8.712;2022-12-24T10:56:50;12.60;90.90
25352;DHT22;13304;48.464;8.712;2022-12-24T10:59:40;12.60;90.50
25352;DHT22;13304;48.464;8.712;2022-12-24T11:02:29;12.60;89.90
25352;DHT22;13304;48.464;8.712;2022-12-24T11:04:56;12.60;89.80
25352;DHT22;13304;48.464;8.712;2022-12-24T11:07:24;12.70;90.40
25352;DHT22;13304;48.464;8.712;2022-12-24T11:10:01;12.80;90.50
25352;DHT22;13304;48.464;8.712;2022-12-24T11:12:39;12.80;89.50
25352;DHT22;13304;48.464;8.712;2022-12-24T11:15:21;12.80;90.30
25352;DHT22;13304;48.464;8.712;2022-12-24T11:18:03;12.80;90.60
25352;DHT22;13304;48.464;8.712;2022-12-24T11:20:32;12.90;90.20
25352;DHT22;13304;48.464;8.712;2022-12-24T11:22:59;12.90;90.20
25352;DHT22;13304;48.464;8.712;2022-12-24T11:25:30;13.00;90.30
25352;DHT22;13304;48.464;8.712;2022-12-24T11:28:20;13.00;90.30
25352;DHT22;13304;48.464;8.712;2022-12-24T11:31:04;13.00;89.60
25352;DHT22;13304;48.464;8.712;2022-12-24T11:33:31;13.00;88.00
25352;DHT22;13304;48.464;8.712;2022-12-24T11:36:12;13.10;89.70
25352;DHT22;13304;48.464;8.712;2022-12-24T11:38:40;13.10;89.00
25352;DHT22;13304;48.464;8.712;2022-12-24T11:41:10;13.20;88.90
25352;DHT22;13304;48.464;8.712;2022-12-24T11:43:47;13.20;87.70
25352;DHT22;13304;48.464;8.712;2022-12-24T11:46:37;13.10;87.30
25352;DHT22;13304;48.464;8.712;2022-12-24T11:49:23;13.10;86.90
25352;DHT22;13304;48.464;8.712;2022-12-24T11:57:13;13.10;86.80
25352;DHT22;13304;48.464;8.712;2022-12-24T11:59:46;13.10;87.70
25352;DHT22;13304;48.464;8.712;2022-12-24T12:02:27;13.10;87.40
25352;DHT22;13304;48.464;8.712;2022-12-24T12:05:03;13.10;86.60
25352;DHT22;13304;48.464;8.712;2022-12-24T12:07:31;13.10;87.00
25352;DHT22;13304;48.464;8.712;2022-12-24T12:12:59;13.00;86.00
25352;DHT22;13304;48.464;8.712;2022-12-24T12:16:09;13.00;86.10
25352;DHT22;13304;48.464;8.712;2022-12-24T12:18:36;13.00;87.30
25352;DHT22;13304;48.464;8.712;2022-12-24T12:21:13;13.00;87.20
25352;DHT22;13304;48.464;8.712;2022-12-24T12:24:05;13.00;87.00
25352;DHT22;13304;48.464;8.712;2022-12-24T12:26:31;12.90;87.40
25352;DHT22;13304;48.464;8.712;2022-12-24T12:31:53;12.90;87.00
25352;DHT22;13304;48.464;8.712;2022-12-24T12:34:39;12.90;87.20
25352;DHT22;13304;48.464;8.712;2022-12-24T12:37:13;12.90;86.60
25352;DHT22;13304;48.464;8.712;2022-12-24T12:39:42;12.90;87.60
25352;DHT22;13304;48.464;8.712;2022-12-24T12:48:08;12.90;85.60
25352;DHT22;13304;48.464;8.712;2022-12-24T12:50:39;13.00;85.90
25352;DHT22;13304;48.464;8.712;2022-12-24T12:58:43;13.10;86.40
25352;DHT22;13304;48.464;8.712;2022-12-24T13:01:23;13.10;86.10
25352;DHT22;13304;48.464;8.712;2022-12-24T13:04:09;13.10;84.60
25352;DHT22;13304;48.464;8.712;2022-12-24T13:12:58;13.10;85.40
25352;DHT22;13304;48.464;8.712;2022-12-24T13:20:59;13.10;86.40
25352;DHT22;13304;48.464;8.712;2022-12-24T13:23:26;13.20;85.90
25352;DHT22;13304;48.464;8.712;2022-12-24T13:25:55;13.10;85.90
25352;DHT22;13304;48.464;8.712;2022-12-24T13:33:45;13.10;84.20
25352;DHT22;13304;48.464;8.712;2022-12-24T13:36:12;13.10;85.10
25352;DHT22;13304;48.464;8.712;2022-12-24T13:49:28;13.00;84.00
25352;DHT22;13304;48.464;8.712;2022-12-24T13:52:06;13.10;85.10
25352;DHT22;13304;48.464;8.712;2022-12-24T13:54:33;13.10;83.90
25352;DHT22;13304;48.464;8.712;2022-12-24T13:57:00;13.10;85.00
25352;DHT22;13304;48.464;8.712;2022-12-24T13:59:34;13.10;84.70
25352;DHT22;13304;48.464;8.712;2022-12-24T14:02:01;13.10;84.50
25352;DHT22;13304;48.464;8.712;2022-12-24T14:04:31;13.10;85.20
25352;DHT22;13304;48.464;8.712;2022-12-24T14:06:59;13.10;84.80
25352;DHT22;13304;48.464;8.712;2022-12-24T14:09:27;13.10;84.90
25352;DHT22;13304;48.464;8.712;2022-12-24T14:14:40;13.10;84.30
25352;DHT22;13304;48.464;8.712;2022-12-24T14:19:43;13.20;84.50
25352;DHT22;13304;48.464;8.712;2022-12-24T14:25:16;13.20;83.30
25352;DHT22;13304;48.464;8.712;2022-12-24T14:27:43;13.20;82.90
25352;DHT22;13304;48.464;8.712;2022-12-24T14:30:23;13.20;84.50
25352;DHT22;13304;48.464;8.712;2022-12-24T14:32:50;13.20;84.00
25352;DHT22;13304;48.464;8.712;2022-12-24T14:35:24;13.20;84.50
25352;DHT22;13304;48.464;8.712;2022-12-24T14:37:59;13.20;84.80
25352;DHT22;13304;48.464;8.712;2022-12-24T14:40:28;13.20;84.90
25352;DHT22;13304;48.464;8.712;2022-12-24T14:45:53;13.10;83.20
25352;DHT22;13304;48.464;8.712;2022-12-24T14:51:25;13.10;84.40
25352;DHT22;13304;48.464;8.712;2022-12-24T14:56:21;13.00;83.90
25352;DHT22;13304;48.464;8.712;2022-12-24T14:58:48;13.00;85.10
25352;DHT22;13304;48.464;8.712;2022-12-24T15:01:20;13.00;84.00
25352;DHT22;13304;48.464;8.712;2022-12-24T15:04:19;13.00;83.60
25352;DHT22;13304;48.464;8.712;2022-12-24T15:06:55;13.00;84.20
25352;DHT22;13304;48.464;8.712;2022-12-24T15:09:24;13.00;83.50
25352;DHT22;13304;48.464;8.712;2022-12-24T15:11:55;13.00;84.10
25352;DHT22;13304;48.464;8.712;2022-12-24T15:14:24;13.00;84.10
25352;DHT22;13304;48.464;8.712;2022-12-24T15:16:56;12.90;83.90
25352;DHT22;13304;48.464;8.712;2022-12-24T15:19:27;12.90;84.00
25352;DHT22;13304;48.464;8.712;2022-12-24T15:21:54;12.90;83.90
25352;DHT22;13304;48.464;8.712;2022-12-24T15:24:24;12.90;83.80
25352;DHT22;13304;48.464;8.712;2022-12-24T15:26:50;12.90;83.30
25352;DHT22;13304;48.464;8.712;2022-12-24T15:29:27;12.90;83.60
25352;DHT22;13304;48.464;8.712;2022-12-24T15:31:58;12.80;82.70
25352;DHT22;13304;48.464;8.712;2022-12-24T15:34:27;12.90;83.20
25352;DHT22;13304;48.464;8.712;2022-12-24T15:37:03;12.90;83.60
25352;DHT22;13304;48.464;8.712;2022-12-24T15:39:30;12.80;82.90
25352;DHT22;13304;48.464;8.712;2022-12-24T15:41:56;12.80;83.30
25352;DHT22;13304;48.464;8.712;2022-12-24T15:44:58;12.80;84.70
25352;DHT22;13304;48.464;8.712;2022-12-24T15:47:37;12.80;84.60
25352;DHT22;13304;48.464;8.712;2022-12-24T15:50:30;12.80;84.40
25352;DHT22;13304;48.464;8.712;2022-12-24T15:53:05;12.80;84.30
25352;DHT22;13304;48.464;8.712;2022-12-24T15:58:22;12.80;84.80
25352;DHT22;13304;48.464;8.712;2022-12-24T16:03:36;12.80;84.90
25352;DHT22;13304;48.464;8.712;2022-12-24T16:08:42;12.80;85.50
25352;DHT22;13304;48.464;8.712;2022-12-24T16:16:15;12.70;85.30
25352;DHT22;13304;48.464;8.712;2022-12-24T16:18:51;12.80;86.10
25352;DHT22;13304;48.464;8.712;2022-12-24T16:21:24;12.80;86.40
25352;DHT22;13304;48.464;8.712;2022-12-24T16:23:53;12.70;86.20
25352;DHT22;13304;48.464;8.712;2022-12-24T16:26:20;12.70;86.40
25352;DHT22;13304;48.464;8.712;2022-12-24T16:28:46;12.70;86.60
25352;DHT22;13304;48.464;8.712;2022-12-24T16:31:28;12.70;86.90
25352;DHT22;13304;48.464;8.712;2022-12-24T16:33:57;12.70;86.50
25352;DHT22;13304;48.464;8.712;2022-12-24T16:36:23;12.70;87.80
25352;DHT22;13304;48.464;8.712;2022-12-24T16:38:48;12.60;87.20
25352;DHT22;13304;48.464;8.712;2022-12-24T16:41:32;12.70;87.20
25352;DHT22;13304;48.464;8.712;2022-12-24T16:44:18;12.60;87.10
25352;DHT22;13304;48.464;8.712;2022-12-24T16:46:43;12.60;87.50
25352;DHT22;13304;48.464;8.712;2022-12-24T16:49:17;12.60;87.50
25352;DHT22;13304;48.464;8.712;2022-12-24T16:51:44;12.60;87.60
25352;DHT22;13304;48.464;8.712;2022-12-24T16:54:11;12.60;87.80
25352;DHT22;13304;48.464;8.712;2022-12-24T16:56:41;12.60;87.90
25352;DHT22;13304;48.464;8.712;2022-12-24T16:59:18;12.60;88.10
25352;DHT22;13304;48.464;8.712;2022-12-24T17:01:45;12.50;88.00
25352;DHT22;13304;48.464;8.712;2022-12-24T17:04:11;12.50;88.10
25352;DHT22;13304;48.464;8.712;2022-12-24T17:06:37;12.50;88.20
25352;DHT22;13304;48.464;8.712;2022-12-24T17:09:03;12.50;88.10
25352;DHT22;13304;48.464;8.712;2022-12-24T17:11:29;12.40;88.00
25352;DHT22;13304;48.464;8.712;2022-12-24T17:13:55;12.50;88.30
25352;DHT22;13304;48.464;8.712;2022-12-24T17:16:20;12.50;88.30
25352;DHT22;13304;48.464;8.712;2022-12-24T17:18:47;12.40;89.20
25352;DHT22;13304;48.464;8.712;2022-12-24T17:21:13;12.40;88.60
25352;DHT22;13304;48.464;8.712;2022-12-24T17:23:42;12.40;88.70
25352;DHT22;13304;48.464;8.712;2022-12-24T17:26:09;12.40;88.60
25352;DHT22;13304;48.464;8.712;2022-12-24T17:28:35;12.40;88.70
25352;DHT22;13304;48.464;8.712;2022-12-24T17:31:13;12.40;88.80
25352;DHT22;13304;48.464;8.712;2022-12-24T17:33:39;12.30;88.70
25352;DHT22;13304;48.464;8.712;2022-12-24T17:36:05;12.40;89.20
25352;DHT22;13304;48.464;8.712;2022-12-24T17:38:31;12.30;89.20
25352;DHT22;13304;48.464;8.712;2022-12-24T17:41:04;12.30;89.20
25352;DHT22;13304;48.464;8.712;2022-12-24T17:43:31;12.30;88.90